Time;durP1;ratioP1;P1;durP2;ratioP2;P2;SDS_P1;SDS_P2;PMS_P1;PMS_P2;Temp;Humidity;BMP_temperature;BMP_pressure;BME280_temperature;BME280_humidity;BME280_pressure;Samples;Min_cycle;Max_cycle;Signal;HPM_P1;HPM_P2
2023/10/24 00:01:26;;;;;;;93.90;33.28;;;;;;;6.47;100.00;100206.20;1756731;81;25645;-58
2023/10/24 00:03:53;;;;;;;63.65;39.65;;;;;;;6.47;100.00;100203.00;1756558;81;26554;-59
2023/10/24 00:06:21;;;;;;;58.38;38.58;;;;;;;6.50;100.00;100197.06;1756602;81;25195;-59
2023/10/24 00:08:47;;;;;;;54.48;38.25;;;;;;;6.52;100.00;100207.50;1756589;81;28077;-59
2023/10/24 00:11:14;;;;;;;62.15;37.83;;;;;;;6.53;100.00;100199.72;1756493;81;25624;-57
2023/10/24 00:13:40;;;;;;;57.62;35.92;;;;;;;6.52;100.00;100194.89;1756543;81;25568;-59
2023/10/24 00:16:07;;;;;;;48.92;34.55;;;;;;;6.53;100.00;100194.34;1756525;81;25493;-59
2023/10/24 00:18:33;;;;;;;53.90;35.73;;;;;;;6.53;99.98;100192.99;1755677;81;25430;-59
2023/10/24 00:21:00;;;;;;;60.10;36.25;;;;;;;6.53;99.93;100191.66;1790511;80;27472;-57
2023/10/24 00:23:32;;;;;;;56.45;34.92;;;;;;;6.53;99.92;100196.47;1755355;81;25393;-58
2023/10/24 00:25:56;;;;;;;64.60;38.00;;;;;;;6.52;99.91;100196.75;1754557;81;25562;-57
2023/10/24 00:28:23;;;;;;;54.42;35.55;;;;;;;6.52;99.98;100192.72;1755388;81;27597;-58
2023/10/24 00:30:49;;;;;;;57.17;37.40;;;;;;;6.52;100.00;100186.83;1790531;80;25564;-57
2023/10/24 00:33:16;;;;;;;58.45;38.75;;;;;;;6.53;100.00;100190.31;1790503;80;28138;-59
2023/10/24 00:35:43;;;;;;;65.25;38.58;;;;;;;6.52;99.68;100187.34;1755386;81;25425;-59
2023/10/24 00:38:10;;;;;;;57.83;37.78;;;;;;;6.52;99.71;100186.01;1790550;80;25193;-57
2023/10/24 00:40:36;;;;;;;56.53;36.68;;;;;;;6.50;99.69;100180.13;1790678;80;25480;-58
2023/10/24 00:43:04;;;;;;;50.88;32.95;;;;;;;6.52;99.90;100176.60;1790557;80;25555;-58
2023/10/24 00:45:35;;;;;;;51.77;32.00;;;;;;;6.51;99.85;100184.42;1790457;80;27546;-57
2023/10/24 00:48:05;;;;;;;46.50;30.92;;;;;;;6.51;99.76;100185.77;1755356;81;25533;-56
2023/10/24 00:50:32;;;;;;;;;;;;;;;6.49;99.44;100186.05;1757192;81;25585;-56
2023/10/24 00:53:01;;;;;;;56.10;29.42;;;;;;;6.49;99.84;100189.28;1755456;81;25666;-59
2023/10/24 00:55:30;;;;;;;44.53;27.77;;;;;;;6.44;99.79;100181.27;1790627;80;25617;-57
2023/10/24 00:57:59;;;;;;;50.20;30.43;;;;;;;6.44;99.96;100186.65;1790682;80;28516;-58
2023/10/24 01:00:27;;;;;;;57.00;28.77;;;;;;;6.43;99.86;100190.41;1755740;81;25776;-57
2023/10/24 01:02:55;;;;;;;58.95;30.37;;;;;;;6.42;99.70;100194.98;1755607;81;25621;-58
2023/10/24 01:05:21;;;;;;;50.55;27.27;;;;;;;6.39;99.64;100196.10;1723841;81;25652;-57
2023/10/24 01:07:48;;;;;;;52.08;27.37;;;;;;;6.36;99.74;100190.73;1790545;80;25576;-58
2023/10/24 01:10:14;;;;;;;44.85;26.55;;;;;;;6.34;100.00;100196.39;1755517;81;28121;-59
2023/10/24 01:12:41;;;;;;;51.50;26.20;;;;;;;6.33;100.00;100193.98;1755480;81;25605;-59
2023/10/24 01:15:10;;;;;;;46.75;26.80;;;;;;;6.33;100.00;100198.02;1755472;81;25583;-58
2023/10/24 01:17:52;;;;;;;50.03;27.95;;;;;;;6.33;100.00;100196.67;1754588;81;25873;-59
2023/10/24 01:20:19;;;;;;;48.73;27.95;;;;;;;6.33;100.00;100188.61;1721581;83;25634;-55
2023/10/24 01:22:47;;;;;;;44.48;25.65;;;;;;;6.34;100.00;100193.70;1751440;81;27484;-56
2023/10/24 01:25:15;;;;;;;64.65;27.55;;;;;;;6.35;100.00;100191.81;1751321;81;25393;-55
2023/10/24 01:27:43;;;;;;;48.38;27.77;;;;;;;6.33;100.00;100190.78;1751356;81;25643;-57
2023/10/24 01:30:14;;;;;;;46.13;28.40;;;;;;;6.35;100.00;100188.60;1751542;81;25594;-55
2023/10/24 01:32:40;;;;;;;44.15;27.10;;;;;;;6.39;100.00;100189.39;1751437;81;25401;-54
2023/10/24 01:35:10;;;;;;;41.60;26.90;;;;;;;6.42;100.00;100188.27;1751420;81;27600;-54
2023/10/24 01:37:36;;;;;;;44.42;27.80;;;;;;;6.45;100.00;100190.40;1751438;81;25706;-56
2023/10/24 01:40:06;;;;;;;48.68;28.73;;;;;;;6.48;100.00;100195.19;1751379;81;25639;-57
2023/10/24 01:42:32;;;;;;;38.65;25.95;;;;;;;6.50;100.00;100189.53;1751517;81;25647;-57
2023/10/24 01:44:59;;;;;;;48.28;28.40;;;;;;;6.53;100.00;100187.06;1751423;81;25666;-55
2023/10/24 01:47:26;;;;;;;42.38;26.85;;;;;;;6.56;100.00;100187.61;1751375;81;27509;-56
2023/10/24 01:49:52;;;;;;;38.50;26.02;;;;;;;6.58;100.00;100190.26;1751280;81;25823;-57
2023/10/24 01:52:19;;;;;;;39.20;26.42;;;;;;;6.60;100.00;100186.73;1751391;81;25551;-56
2023/10/24 01:54:45;;;;;;;39.67;26.25;;;;;;;6.63;100.00;100192.89;1751359;81;25696;-56
2023/10/24 01:57:12;;;;;;;40.43;27.65;;;;;;;6.66;100.00;100184.81;1751434;81;25620;-56
2023/10/24 01:59:38;;;;;;;40.50;25.72;;;;;;;6.68;100.00;100188.80;1751348;81;27518;-57
2023/10/24 02:02:05;;;;;;;39.27;27.10;;;;;;;6.71;100.00;100182.07;1751323;81;25800;-56
2023/10/24 02:04:32;;;;;;;43.13;27.55;;;;;;;6.75;100.00;100176.92;1751388;81;25490;-58
2023/10/24 02:06:58;;;;;;;45.03;28.87;;;;;;;6.78;100.00;100169.63;1751337;81;25573;-59
2023/10/24 02:09:27;;;;;;;40.55;28.62;;;;;;;6.81;100.00;100174.42;1751390;81;25602;-59
2023/10/24 02:11:53;;;;;;;43.95;26.65;;;;;;;6.82;100.00;100182.75;1751450;82;27528;-56
2023/10/24 02:14:20;;;;;;;40.30;26.62;;;;;;;6.80;100.00;100180.90;1751255;81;25623;-59
2023/10/24 02:16:46;;;;;;;53.02;27.25;;;;;;;6.80;100.00;100184.38;1751398;81;25636;-59
2023/10/24 02:19:13;;;;;;;40.98;26.10;;;;;;;6.80;100.00;100184.38;1754193;81;26190;-59
2023/10/24 02:21:40;;;;;;;41.37;26.30;;;;;;;6.81;100.00;100181.14;1790551;80;25591;-59
2023/10/24 02:24:07;;;;;;;39.35;25.43;;;;;;;6.80;100.00;100179.00;1790413;79;28056;-56
2023/10/24 02:26:33;;;;;;;40.10;25.17;;;;;;;6.82;100.00;100182.75;1790279;80;25450;-59
2023/10/24 02:29:00;;;;;;;43.33;25.65;;;;;;;6.83;100.00;100180.33;1790439;80;25391;-59
2023/10/24 02:31:26;;;;;;;59.60;26.90;;;;;;;6.83;100.00;100180.33;1790408;80;26197;-58
2023/10/24 02:33:53;;;;;;;37.88;23.90;;;;;;;6.84;100.00;100177.33;1790376;80;25585;-57
2023/10/24 02:36:19;;;;;;;35.13;24.82;;;;;;;6.84;100.00;100174.64;1790480;80;27361;-55
2023/10/24 02:38:46;;;;;;;35.13;23.60;;;;;;;6.85;100.00;100172.22;1755325;81;25604;-57
2023/10/24 02:41:14;;;;;;;42.00;24.65;;;;;;;6.83;100.00;100172.27;1790428;80;25423;-58
2023/10/24 02:43:40;;;;;;;47.98;24.75;;;;;;;6.84;100.00;100171.95;1790378;80;25587;-54
2023/10/24 02:46:08;;;;;;;42.33;25.37;;;;;;;6.82;100.00;100174.13;1755484;81;25479;-58
2023/10/24 02:48:35;;;;;;;36.38;24.07;;;;;;;6.80;100.00;100173.63;1790553;80;27468;-55
2023/10/24 02:51:02;;;;;;;37.25;25.65;;;;;;;6.80;100.00;100170.94;1755441;81;25539;-55
2023/10/24 02:53:29;;;;;;;35.98;24.87;;;;;;;6.81;100.00;100168.52;1790583;80;25594;-59
2023/10/24 02:56:05;;;;;;;41.13;24.47;;;;;;;6.81;100.00;100171.20;1755495;81;26101;-57
2023/10/24 02:58:31;;;;;;;30.77;22.90;;;;;;;6.81;100.00;100173.89;1755609;81;25410;-55
2023/10/24 03:01:06;;;;;;;34.13;23.83;;;;;;;6.80;100.00;100168.25;1790572;80;28177;-54
2023/10/24 03:03:33;;;;;;;35.28;25.02;;;;;;;6.82;100.00;100168.75;1755444;81;25594;-53
2023/10/24 03:06:00;;;;;;;32.30;24.30;;;;;;;6.82;100.00;100168.75;1755501;81;25420;-54
2023/10/24 03:08:27;;;;;;;35.10;23.38;;;;;;;6.83;100.00;100173.06;1790512;80;26201;-54
2023/10/24 03:10:54;;;;;;;34.85;23.07;;;;;;;6.84;100.00;100171.95;1790588;80;25645;-55
2023/10/24 03:13:20;;;;;;;34.92;23.45;;;;;;;6.86;100.00;100171.14;1755536;81;27496;-56
2023/10/24 03:15:47;;;;;;;34.45;24.72;;;;;;;6.89;100.00;100163.83;1790477;80;25655;-54
2023/10/24 03:18:13;;;;;;;38.38;25.43;;;;;;;6.91;100.00;100158.98;1788330;79;25633;-58
2023/10/24 03:20:41;;;;;;;37.28;25.60;;;;;;;6.95;100.00;100155.70;1730904;82;26187;-57
2023/10/24 03:23:09;;;;;;;36.15;24.92;;;;;;;7.01;100.00;100153.22;1730969;82;25582;-55
2023/10/24 03:25:41;;;;;;;39.15;30.92;;;;;;;7.05;100.00;100156.95;1730913;82;27459;-54
2023/10/24 03:28:08;;;;;;;38.30;25.97;;;;;;;7.08;100.00;100150.44;1730833;82;25883;-54
2023/10/24 03:30:34;;;;;;;37.42;26.02;;;;;;;7.13;100.00;100152.24;1730912;82;25635;-57
2023/10/24 03:33:01;;;;;;;35.48;25.70;;;;;;;7.17;100.00;100148.42;1730898;82;25426;-54
2023/10/24 03:35:27;;;;;;;35.88;25.20;;;;;;;7.21;100.00;100148.91;1730931;82;25398;-55
2023/10/24 03:37:55;;;;;;;35.98;24.18;;;;;;;7.23;100.00;100150.77;1730910;82;28119;-55
2023/10/24 03:40:25;;;;;;;40.17;25.12;;;;;;;7.25;100.00;100157.20;1730817;82;25884;-55
2023/10/24 03:42:49;;;;;;;36.40;26.23;;;;;;;7.27;100.00;100155.02;1730663;82;25457;-58
2023/10/24 03:45:16;;;;;;;39.95;25.32;;;;;;;7.26;100.00;100154.22;1730866;82;25559;-58
2023/10/24 03:47:42;;;;;;;36.88;25.43;;;;;;;7.29;100.00;100146.92;1730934;81;25415;-56
2023/10/24 03:50:09;;;;;;;41.90;25.57;;;;;;;7.32;100.00;100157.66;1730997;82;27506;-55
2023/10/24 03:52:36;;;;;;;35.13;25.12;;;;;;;7.31;100.00;100150.67;1730796;82;25567;-55
2023/10/24 03:55:04;;;;;;;35.75;24.18;;;;;;;7.33;100.00;100150.38;1730935;82;25403;-57
2023/10/24 03:57:31;;;;;;;35.30;24.72;;;;;;;7.36;100.00;100151.16;1730844;82;25595;-57
2023/10/24 03:59:58;;;;;;;43.23;26.17;;;;;;;7.38;100.00;100145.72;1730926;82;25563;-54
2023/10/24 04:02:24;;;;;;;38.40;25.97;;;;;;;7.40;100.00;100139.50;1730958;82;27495;-55
2023/10/24 04:04:51;;;;;;;41.98;26.95;;;;;;;7.41;100.00;100142.45;1730802;82;25597;-58
2023/10/24 04:07:19;;;;;;;42.45;26.82;;;;;;;7.43;100.00;100131.41;1730874;82;25449;-56
2023/10/24 04:09:46;;;;;;;43.78;27.32;;;;;;;7.46;100.00;100122.75;1730863;81;25617;-57
2023/10/24 04:12:12;;;;;;;42.78;25.45;;;;;;;7.47;100.00;100125.16;1730927;82;25483;-54
2023/10/24 04:14:39;;;;;;;39.70;25.10;;;;;;;7.50;100.00;100134.52;1730911;82;27557;-57
2023/10/24 04:17:06;;;;;;;41.75;25.80;;;;;;;7.50;100.00;100134.52;1730814;81;25789;-58
2023/10/24 04:19:32;;;;;;;42.05;24.92;;;;;;;7.51;100.00;100133.97;1711936;82;25650;-55
2023/10/24 04:21:59;;;;;;;38.35;25.88;;;;;;;7.54;100.00;100132.04;1730862;82;25685;-57
2023/10/24 04:24:27;;;;;;;36.45;25.17;;;;;;;7.57;100.00;100130.12;1730904;82;25470;-55
2023/10/24 04:26:53;;;;;;;39.15;25.90;;;;;;;7.57;100.00;100118.80;1730847;82;28463;-56
2023/10/24 04:29:21;;;;;;;40.50;25.27;;;;;;;7.60;100.00;100120.12;1730821;81;25663;-57
2023/10/24 04:31:49;;;;;;;38.17;25.25;;;;;;;7.62;100.00;100115.23;1730875;82;25583;-57
2023/10/24 04:34:16;;;;;;;41.98;26.50;;;;;;;7.64;100.00;100104.97;1730826;82;25530;-57
2023/10/24 04:36:42;;;;;;;35.52;24.55;;;;;;;7.65;100.00;100101.20;1730887;82;25373;-56
2023/10/24 04:39:09;;;;;;;38.13;23.42;;;;;;;7.65;100.00;100098.50;1730877;82;27882;-55
2023/10/24 04:41:35;;;;;;;42.13;25.82;;;;;;;7.67;100.00;100093.06;1730877;82;25445;-58
2023/10/24 04:44:02;;;;;;;38.88;24.80;;;;;;;7.67;100.00;100086.89;1730875;82;25583;-57
2023/10/24 04:46:29;;;;;;;43.17;25.12;;;;;;;7.68;100.00;100089.84;1730822;81;25861;-57
2023/10/24 04:48:55;;;;;;;42.33;25.43;;;;;;;7.67;100.00;100088.23;1730825;81;25410;-56
2023/10/24 04:51:22;;;;;;;39.83;25.77;;;;;;;7.69;100.00;100098.16;1730874;82;28080;-58
2023/10/24 04:53:49;;;;;;;45.55;25.77;;;;;;;7.69;100.00;100103.54;1730800;82;25605;-55
2023/10/24 04:56:15;;;;;;;40.28;25.88;;;;;;;7.72;100.00;100099.47;1730881;82;25462;-55
2023/10/24 04:58:41;;;;;;;38.25;24.87;;;;;;;7.71;100.00;100097.86;1730853;82;25877;-55
2023/10/24 05:01:08;;;;;;;43.50;24.25;;;;;;;7.73;100.00;100097.84;1730864;82;25589;-58
2023/10/24 05:03:36;;;;;;;38.63;24.87;;;;;;;7.75;100.00;100101.58;1730868;82;27417;-59
2023/10/24 05:06:03;;;;;;;37.83;24.55;;;;;;;7.76;100.00;100099.13;1730753;82;25417;-55
2023/10/24 05:08:29;;;;;;;37.83;23.98;;;;;;;7.79;100.00;100110.10;1730813;81;25495;-55
2023/10/24 05:10:56;;;;;;;69.82;24.75;;;;;;;7.80;100.00;100115.75;1730819;82;25497;-54
2023/10/24 05:13:23;;;;;;;67.42;22.58;;;;;;;7.80;100.00;100119.80;1730891;82;25603;-56
2023/10/24 05:15:49;;;;;;;52.45;22.95;;;;;;;7.80;100.00;100129.77;1730319;82;27513;-54
2023/10/24 05:18:15;;;;;;;43.80;25.60;;;;;;;7.80;100.00;100123.83;1730640;82;25647;-55
2023/10/24 05:20:42;;;;;;;44.18;25.55;;;;;;;7.80;100.00;100125.18;1730768;81;25380;-54
2023/10/24 05:23:08;;;;;;;41.90;24.98;;;;;;;7.81;100.00;100126.76;1730786;82;25538;-57
2023/10/24 05:25:35;;;;;;;62.10;23.30;;;;;;;7.83;100.00;100131.85;1730461;82;25791;-55
2023/10/24 05:28:02;;;;;;;46.65;21.35;;;;;;;7.83;100.00;100137.23;1730554;82;27501;-55
2023/10/24 05:30:29;;;;;;;79.25;23.15;;;;;;;7.81;100.00;100142.13;1730732;82;25568;-58
2023/10/24 05:32:58;;;;;;;85.03;23.20;;;;;;;7.79;100.00;100144.31;1730796;82;25529;-54
2023/10/24 05:35:24;;;;;;;75.37;22.95;;;;;;;7.75;100.00;100150.05;1730658;82;25745;-56
2023/10/24 05:37:51;;;;;;;45.80;21.30;;;;;;;7.72;100.00;100156.80;1730902;82;25658;-56
2023/10/24 05:40:17;;;;;;;61.88;22.45;;;;;;;7.67;100.00;100156.33;1730811;82;28135;-57
2023/10/24 05:42:44;;;;;;;39.58;21.23;;;;;;;7.66;100.00;100157.44;1730233;82;25435;-54
2023/10/24 05:45:11;;;;;;;56.50;23.40;;;;;;;7.64;100.00;100156.11;1730796;82;25500;-57
2023/10/24 05:47:37;;;;;;;46.02;22.17;;;;;;;7.62;100.00;100163.69;1730733;82;25871;-55
2023/10/24 05:50:06;;;;;;;51.88;23.98;;;;;;;7.62;100.00;100165.83;1730845;82;25473;-57
2023/10/24 05:52:33;;;;;;;57.53;21.62;;;;;;;7.62;100.00;100169.86;1730787;82;27510;-56
2023/10/24 05:55:00;;;;;;;43.78;22.30;;;;;;;7.65;100.00;100177.91;1730688;82;25537;-59
2023/10/24 05:57:28;;;;;;;52.62;23.05;;;;;;;7.68;100.00;100181.38;1730789;82;25548;-56
2023/10/24 05:59:56;;;;;;;47.08;23.15;;;;;;;7.69;100.00;100175.44;1730887;82;25644;-55
2023/10/24 06:02:22;;;;;;;45.58;22.98;;;;;;;7.72;100.00;100175.65;1730827;82;25477;-55
2023/10/24 06:04:49;;;;;;;46.65;23.22;;;;;;;7.75;100.00;100168.34;1730819;82;27490;-59
2023/10/24 06:07:16;;;;;;;60.43;24.07;;;;;;;7.80;100.00;100169.61;1730689;82;25394;-57
2023/10/24 06:09:42;;;;;;;50.52;22.67;;;;;;;7.84;100.00;100170.61;1730790;82;25389;-59
2023/10/24 06:12:09;;;;;;;44.60;23.55;;;;;;;7.88;100.00;100174.86;1730777;82;25602;-55
2023/10/24 06:14:36;;;;;;;57.73;21.85;;;;;;;7.92;100.00;100179.14;1730811;82;25405;-58
2023/10/24 06:17:03;;;;;;;63.13;23.55;;;;;;;7.96;100.00;100175.54;1730904;82;27395;-54
2023/10/24 06:19:30;;;;;;;42.50;22.48;;;;;;;8.02;100.00;100185.70;1737954;81;25793;-57
2023/10/24 06:21:56;;;;;;;62.53;23.75;;;;;;;8.07;100.00;100174.84;1790612;80;25630;-56
2023/10/24 06:24:23;;;;;;;43.73;21.70;;;;;;;8.14;100.00;100173.91;1790556;79;25471;-55
2023/10/24 06:26:49;;;;;;;48.08;22.35;;;;;;;8.18;100.00;100171.42;1755564;81;25630;-55
2023/10/24 06:29:16;;;;;;;49.85;22.85;;;;;;;8.21;100.00;100158.72;1755579;81;27686;-59
2023/10/24 06:31:43;;;;;;;49.53;23.05;;;;;;;8.28;100.00;100155.08;1790485;80;25498;-57
2023/10/24 06:34:09;;;;;;;39.48;24.32;;;;;;;8.34;100.00;100160.64;1790694;79;25463;-56
2023/10/24 06:36:36;;;;;;;54.53;26.85;;;;;;;8.37;100.00;100151.15;1755551;81;25470;-54
2023/10/24 06:39:04;;;;;;;62.30;25.52;;;;;;;8.41;100.00;100152.96;1790619;80;25464;-56
2023/10/24 06:41:31;;;;;;;52.85;21.10;;;;;;;8.45;100.00;100145.66;1755531;81;27474;-56
2023/10/24 06:43:58;;;;;;;50.08;20.08;;;;;;;8.47;100.00;100138.86;1790491;80;25806;-57
2023/10/24 06:46:24;;;;;;;42.48;18.23;;;;;;;8.51;100.00;100137.71;1790562;80;25533;-58
2023/10/24 06:48:52;;;;;;;34.78;19.75;;;;;;;8.53;100.00;100135.52;1755487;81;25628;-59
2023/10/24 06:51:19;;;;;;;35.08;19.73;;;;;;;8.57;100.00;100132.48;1755587;81;25419;-59
2023/10/24 06:53:46;;;;;;;42.75;18.92;;;;;;;8.64;100.00;100134.78;1755534;81;27515;-54
2023/10/24 06:56:12;;;;;;;34.43;18.95;;;;;;;8.67;100.00;100130.15;1790191;80;25628;-58
2023/10/24 06:58:40;;;;;;;36.70;18.85;;;;;;;8.69;100.00;100131.44;1754313;81;25653;-58
2023/10/24 07:01:07;;;;;;;40.28;18.17;;;;;;;8.73;100.00;100128.94;1790548;80;25491;-59
2023/10/24 07:03:33;;;;;;;53.17;19.75;;;;;;;8.75;100.00;100131.59;1755559;81;25520;-58
2023/10/24 07:05:59;;;;;;;38.10;18.30;;;;;;;8.78;100.00;100132.88;1755548;81;27501;-59
2023/10/24 07:08:26;;;;;;;37.08;19.55;;;;;;;8.79;100.00;100128.53;1790437;80;25668;-58
2023/10/24 07:10:52;;;;;;;32.53;18.82;;;;;;;8.78;100.00;100130.18;1790578;80;25370;-58
2023/10/24 07:13:19;;;;;;;41.95;19.23;;;;;;;8.78;100.00;100122.91;1790520;80;25853;-58
2023/10/24 07:15:46;;;;;;;44.83;19.85;;;;;;;8.83;100.00;100123.89;1755683;81;25619;-58
2023/10/24 07:18:13;;;;;;;40.43;18.30;;;;;;;8.83;100.00;100126.03;1790548;80;27458;-59
2023/10/24 07:20:40;;;;;;;26.10;18.50;;;;;;;8.83;100.00;100131.42;1740442;81;25412;-55
2023/10/24 07:23:07;;;;;;;28.20;18.10;;;;;;;8.84;100.00;100134.94;1730915;82;25434;-57
2023/10/24 07:25:33;;;;;;;34.35;19.32;;;;;;;8.85;100.00;100135.17;1730868;82;26241;-56
2023/10/24 07:28:00;;;;;;;37.38;19.12;;;;;;;8.89;100.00;100135.63;1730908;82;25555;-55
2023/10/24 07:30:27;;;;;;;40.08;19.17;;;;;;;8.95;100.00;100143.05;1730930;82;28452;-58
2023/10/24 07:32:54;;;;;;;37.20;20.30;;;;;;;9.00;100.00;100147.55;1730836;82;25394;-58
2023/10/24 07:35:24;;;;;;;35.15;19.15;;;;;;;9.09;100.00;100148.42;1730965;82;25550;-58
2023/10/24 07:37:50;;;;;;;;;;;;;;;9.12;100.00;100145.92;1733521;82;25594;-55
2023/10/24 07:40:17;;;;;;;29.48;20.20;;;;;;;9.20;100.00;100141.72;1715767;83;25615;-56
2023/10/24 07:42:44;;;;;;;31.73;21.75;;;;;;;9.30;100.00;100142.84;1701729;84;28288;-55
2023/10/24 07:45:11;;;;;;;38.95;22.07;;;;;;;9.41;100.00;100141.27;1701887;82;25648;-57
2023/10/24 07:47:38;;;;;;;32.40;20.43;;;;;;;9.51;100.00;100140.47;1730947;82;25524;-58
2023/10/24 07:50:08;;;;;;;39.75;23.20;;;;;;;9.58;100.00;100134.66;1730873;82;25720;-59
2023/10/24 07:52:35;;;;;;;37.67;21.73;;;;;;;9.68;100.00;100139.81;1730993;82;25378;-58
2023/10/24 07:55:02;;;;;;;35.00;22.20;;;;;;;9.79;100.00;100141.74;1730964;82;27518;-58
2023/10/24 07:57:29;;;;;;;38.85;26.35;;;;;;;9.89;100.00;100146.08;1730902;82;25406;-60
2023/10/24 07:59:57;;;;;;;34.70;22.00;;;;;;;10.00;100.00;100149.34;1731019;82;25550;-59
2023/10/24 08:02:24;;;;;;;34.15;22.62;;;;;;;10.08;100.00;100145.34;1730931;82;26532;-60
2023/10/24 08:04:50;;;;;;;33.33;22.87;;;;;;;10.20;100.00;100139.91;1731001;82;25222;-61
2023/10/24 08:07:17;;;;;;;37.05;22.73;;;;;;;10.28;100.00;100142.67;1730901;82;27839;-59
2023/10/24 08:09:43;;;;;;;40.63;23.85;;;;;;;10.44;100.00;100155.26;1730817;82;25471;-59
2023/10/24 08:12:11;;;;;;;39.25;23.83;;;;;;;10.54;100.00;100150.67;1730938;82;25488;-57
2023/10/24 08:14:38;;;;;;;37.95;26.77;;;;;;;10.60;100.00;100136.70;1730883;82;25826;-58
2023/10/24 08:17:05;;;;;;;43.17;28.65;;;;;;;10.69;100.00;100106.19;1730979;82;25418;-57
2023/10/24 08:19:33;;;;;;;37.90;24.50;;;;;;;10.78;100.00;100092.14;1731151;81;27771;-58
2023/10/24 08:22:00;;;;;;;34.03;24.40;;;;;;;10.83;100.00;100077.91;1751397;81;26225;-56
2023/10/24 08:24:29;;;;;;;40.12;24.90;;;;;;;10.86;100.00;100082.44;1751487;81;25445;-57
2023/10/24 08:26:56;;;;;;;34.33;25.40;;;;;;;10.89;100.00;100092.06;1751577;81;25844;-57
2023/10/24 08:29:23;;;;;;;33.42;24.25;;;;;;;10.91;100.00;100085.78;1751492;81;25404;-57
2023/10/24 08:31:49;;;;;;;39.65;25.68;;;;;;;10.95;100.00;100080.55;1751491;81;27509;-57
2023/10/24 08:34:16;;;;;;;35.73;24.23;;;;;;;10.98;100.00;100080.72;1751408;81;25636;-57
2023/10/24 08:36:43;;;;;;;38.00;25.05;;;;;;;11.02;100.00;100064.64;1751479;81;25569;-56
2023/10/24 08:39:11;;;;;;;39.70;25.05;;;;;;;11.06;100.00;100045.28;1751453;81;25846;-55
2023/10/24 08:41:40;;;;;;;36.13;24.82;;;;;;;11.13;100.00;100044.81;1751506;81;25479;-55
2023/10/24 08:44:07;;;;;;;43.17;25.57;;;;;;;11.15;100.00;100041.22;1751662;81;27467;-59
2023/10/24 08:46:35;;;;;;;36.00;24.12;;;;;;;11.18;100.00;100040.02;1751365;81;25623;-58
2023/10/24 08:49:04;;;;;;;41.98;24.47;;;;;;;11.23;100.00;100059.95;1751432;81;25600;-55
2023/10/24 08:51:31;;;;;;;35.15;23.70;;;;;;;11.27;100.00;100047.35;1751462;81;25513;-56
2023/10/24 08:53:57;;;;;;;35.92;24.98;;;;;;;11.31;100.00;100043.70;1751500;81;25607;-55
2023/10/24 08:58:03;;;;;;;40.70;25.35;;;;;;;11.49;100.00;100047.20;1885629;76;34815;-57
2023/10/24 09:00:32;;;;;;;37.40;25.48;;;;;;;11.47;100.00;100037.78;1857052;77;25687;-57
2023/10/24 09:03:00;;;;;;;36.00;25.10;;;;;;;11.57;100.00;100036.09;1858302;77;27464;-57
2023/10/24 09:05:28;;;;;;;34.98;24.18;;;;;;;11.64;100.00;100053.22;1858007;77;25430;-57
2023/10/24 09:07:56;;;;;;;36.35;25.75;;;;;;;11.71;100.00;100057.58;1858237;77;25172;-55
2023/10/24 09:10:24;;;;;;;36.03;25.45;;;;;;;11.78;100.00;100066.81;1788257;80;25396;-56
2023/10/24 09:12:55;;;;;;;37.38;26.37;;;;;;;11.94;100.00;100072.54;1788165;80;25618;-55
2023/10/24 09:15:23;;;;;;;41.73;26.27;;;;;;;12.15;100.00;100072.62;1755491;80;28167;-58
2023/10/24 09:17:49;;;;;;;39.03;25.08;;;;;;;12.42;100.00;100077.38;1787999;80;25385;-58
2023/10/24 09:20:20;;;;;;;36.15;24.18;;;;;;;12.71;100.00;100082.59;1788128;80;25451;-57
2023/10/24 09:22:47;;;;;;;36.20;24.70;;;;;;;12.93;100.00;100084.20;1788079;80;25526;-57
2023/10/24 09:25:20;;;;;;;36.60;24.30;;;;;;;13.10;100.00;100079.79;1788174;80;25538;-58
2023/10/24 09:27:46;;;;;;;36.15;22.67;;;;;;;13.27;100.00;100072.28;1788237;80;27384;-58
2023/10/24 09:30:15;;;;;;;28.65;22.50;;;;;;;13.48;100.00;100070.14;1788130;80;25567;-55
2023/10/24 09:32:45;;;;;;;33.13;21.65;;;;;;;13.59;100.00;100075.41;1788289;80;30079;-57
2023/10/24 09:35:14;;;;;;;31.90;22.50;;;;;;;13.68;100.00;100068.52;1788104;80;25626;-58
2023/10/24 09:37:48;;;;;;;32.50;22.52;;;;;;;13.87;100.00;100056.34;1788099;80;25163;-56
2023/10/24 09:40:16;;;;;;;27.40;20.52;;;;;;;14.20;100.00;100048.91;1788176;80;27838;-55
2023/10/24 09:42:44;;;;;;;28.83;19.92;;;;;;;14.55;100.00;100038.13;1788060;80;25691;-56
2023/10/24 09:45:13;;;;;;;29.37;20.77;;;;;;;14.87;100.00;100032.90;1788351;80;25545;-55
2023/10/24 09:47:42;;;;;;;24.65;18.95;;;;;;;15.39;100.00;100027.95;1788194;80;25425;-56
2023/10/24 09:50:11;;;;;;;22.00;17.75;;;;;;;15.88;100.00;100020.09;1788237;80;25629;-57
2023/10/24 09:52:43;;;;;;;24.80;17.23;;;;;;;16.56;100.00;100012.72;1788047;80;28675;-59
2023/10/24 09:55:13;;;;;;;21.68;15.93;;;;;;;17.13;100.00;100011.81;1756986;81;25795;-56
2023/10/24 09:57:41;;;;;;;21.70;15.55;;;;;;;17.70;100.00;100014.81;1731558;81;25682;-58
2023/10/24 10:00:11;;;;;;;22.52;15.85;;;;;;;18.34;100.00;100018.41;1741700;82;26182;-58
2023/10/24 10:02:46;;;;;;;21.30;14.40;;;;;;;19.40;100.00;100004.54;1735652;82;25629;-56
2023/10/24 10:05:17;;;;;;;20.85;13.62;;;;;;;20.47;100.00;99990.75;1729497;83;27537;-57
2023/10/24 10:07:49;;;;;;;18.37;14.03;;;;;;;21.34;94.41;99990.55;1729103;83;25464;-55
2023/10/24 10:10:19;;;;;;;17.02;13.08;;;;;;;22.09;90.85;99983.73;1728760;83;25225;-55
2023/10/24 10:12:48;;;;;;;19.50;12.07;;;;;;;23.01;88.00;99976.23;1728857;83;25409;-58
2023/10/24 10:15:21;;;;;;;;;;;;;;;23.75;84.67;99954.89;1731453;83;25438;-55
2023/10/24 10:18:11;;;;;;;17.23;10.05;;;;;;;24.52;81.67;99951.56;1728551;83;27598;-55
2023/10/24 10:21:07;;;;;;;17.20;11.18;;;;;;;24.90;75.35;99946.02;1728929;83;25611;-58
2023/10/24 10:24:12;;;;;;;15.58;10.53;;;;;;;25.22;73.79;99943.41;1728909;83;25598;-58
2023/10/24 10:26:59;;;;;;;16.95;9.70;;;;;;;25.77;72.16;99928.92;1728896;83;25749;-58
2023/10/24 10:29:57;;;;;;;11.57;7.95;;;;;;;26.49;70.70;99911.75;1728328;83;25413;-57
2023/10/24 10:32:50;;;;;;;9.60;6.87;;;;;;;26.74;64.39;99909.11;1670260;85;27514;-59
2023/10/24 10:35:19;;;;;;;22.95;17.82;;;;;;;26.78;63.31;99909.22;1663470;85;25685;-59
2023/10/24 10:38:03;;;;;;;;;;;;;;;27.06;62.01;99909.02;1669827;86;25525;-59
2023/10/24 10:40:32;;;;;;;12.75;8.28;;;;;;;27.09;58.07;99918.64;1672985;85;25628;-58
2023/10/24 10:42:59;;;;;;;11.35;7.15;;;;;;;27.05;59.14;99917.92;1673099;85;25632;-63
2023/10/24 10:45:30;;;;;;;12.65;6.85;;;;;;;27.10;57.84;99910.47;1673125;85;27707;-64
2023/10/24 10:48:01;;;;;;;12.10;7.00;;;;;;;26.56;57.26;99902.51;1672940;85;25630;-63
2023/10/24 10:50:32;;;;;;;9.80;6.40;;;;;;;26.56;58.46;99899.73;1673015;85;25685;-63
2023/10/24 10:53:06;;;;;;;9.68;6.03;;;;;;;26.69;56.60;99898.52;1672985;85;25671;-63
2023/10/24 10:55:53;;;;;;;10.90;6.40;;;;;;;26.15;55.39;99894.80;1671107;85;25503;-64
2023/10/24 10:58:34;;;;;;;8.45;5.70;;;;;;;25.05;53.34;99898.20;1660230;85;27499;-64
2023/10/24 11:01:11;;;;;;;10.32;6.47;;;;;;;24.71;55.75;99885.23;1658208;86;25546;-63
2023/10/24 11:03:47;;;;;;;12.75;6.60;;;;;;;24.50;55.87;99880.72;1585238;90;25606;-63
2023/10/24 11:06:19;;;;;;;11.60;5.97;;;;;;;24.63;56.20;99879.61;1585834;90;25507;-63
2023/10/24 11:09:09;;;;;;;8.50;5.90;;;;;;;24.63;55.44;99889.28;1605710;86;25342;-63
2023/10/24 11:11:38;;;;;;;8.10;5.10;;;;;;;24.67;55.00;99883.91;1665959;86;27742;-64
2023/10/24 11:14:17;;;;;;;9.23;6.00;;;;;;;24.78;55.28;99869.92;1665990;86;25509;-62
2023/10/24 11:16:50;;;;;;;9.40;5.60;;;;;;;24.99;56.08;99872.97;1665929;86;25452;-64
2023/10/24 11:19:27;;;;;;;9.83;5.90;;;;;;;25.37;56.04;99876.98;1665923;86;25470;-63